This is the latest recevied weather packets stored in our database for station/object KC3IEI-9. If no packets are shown the sender has not sent any weather packets the latest 10 day(s).
| Time | Temp. | Humidity | Pressure | Rain* | Wind** | Luminosity | Snow |
|---|---|---|---|---|---|---|---|
| 1777684542 | 18.89° C | 45% | - | 0 mm | - | - | - |
| 1777682741 | 18.89° C | 46% | - | 0 mm | - | - | - |
| 1777681429 | 19.44° C | 45% | - | 0 mm | - | - | - |
| 1777678649 | 21.11° C | 39% | - | 0 mm | - | - | - |
| 1777676382 | 23.33° C | 35% | - | 0 mm | - | - | - |
| 1777674675 | 25.56° C | 34% | - | 0 mm | - | - | - |
| 1777599362 | 17.22° C | 47% | - | 0 mm | - | - | - |
| 1777593812 | 20.56° C | 40% | - | 0 mm | - | - | - |
| 1777592007 | 22.22° C | 38% | - | 0 mm | - | - | - |
| 1777588187 | 25° C | 40% | - | 0 mm | - | - | - |
| 1777564689 | 21.11° C | 46% | - | 0.51 mm | - | - | - |
| 1777562889 | 21.67° C | 54% | - | 0.51 mm | - | - | - |
| 1777560949 | 20° C | 59% | - | 0.51 mm | - | - | - |
| 1777559148 | 18.33° C | 57% | - | 0.51 mm | - | - | - |
| 1777558504 | 18.33° C | 59% | - | 0.51 mm | - | - | - |
| 1777556194 | 16.67° C | 61% | - | 0.51 mm | - | - | - |
| 1777523404 | 18.89° C | 57% | - | 0.51 mm | - | - | - |
| 1777521603 | 19.44° C | 56% | - | 0.51 mm | - | - | - |
| 1777519802 | 20° C | 56% | - | 0.51 mm | - | - | - |
| 1777518001 | 20.56° C | 57% | - | 0.25 mm | - | - | - |
| 1777514400 | 21.11° C | 56% | - | 0 mm | - | - | - |
| 1777512600 | 21.11° C | 56% | - | 0 mm | - | - | - |
| 1777510800 | 22.22° C | 52% | - | 0 mm | - | - | - |
| 1777508998 | 23.33° C | 50% | - | 0 mm | - | - | - |
| 1777490463 | 22.78° C | 56% | - | 0 mm | - | - | - |
* Rain since midnight (hover to see other rain measurements)
** Current wind speed in m/s (hover to see current wind gust speed)